Historyczne dane pomiarowe

Dodano dane terminowe – wersja testowa.

Dane z okresu 1951-2019

Wersja bazy: 1.34 [2019-03-16, lista zmian], aktualizacja planowana na 2019-04-15

Dane meteo z obszaru Polski uzyskane na podstawie danych udostępnionych przez Instytut Meteorologii i Gospodarki Wodnej – Państwowy Instytut Badawczy.

 

Wybierz Datę:    

       

TemperaturaWilgotnośćWiatrCiśnienieOpadyŚniegCzas trwania zjawisk
 Stacja t tx tn tng RH VA  wxwx mslp ppp RRR   cm mm wxwxwxwxwxwxwx
1999-08-14 12.5 18.1 5.8 3.3 79.3- 4.0 2.0---- 0.0------------
1999-08-13 13.3 16.1 9.7 6.6 93.5- 8.0 1.0---- 0.0------------
1999-08-12 15.9 17.9 13.8 11.5 92.3- 8.0 1.3---- 2.0------------
1999-08-11 19.2 25.4 15.3 14.3 91.0- 7.7 2.0---- 2.4------------
1999-08-10 22.6 28.6 16.1 13.7 83.0- 7.0 2.0---- 10.0------------
1999-08-09 20.9 29.7 13.8 10.0 83.8- 4.3 2.3---- 0.0------------
1999-08-08 18.5 22.1 13.7 12.2 86.3- 4.0 4.0---- 0.0------------
1999-08-07 18.5 26.1 10.7 7.6 78.8- 2.7 1.7---- 0.0------------
1999-08-06 17.3 23.1 12.0 10.7 82.5- 6.7 2.3---- 30.0------------
1999-08-05 15.3 23.1 7.8 6.6 86.3- 4.3 1.3---- 0.0------------
1999-08-04 14.6 19.1 9.9 7.2 91.3- 7.0 1.3---- 0.0------------
1999-08-03 14.5 18.2 9.7 7.1 90.5- 8.0 2.0---- 0.0------------
1999-08-02 14.1 16.3 12.2 11.5 97.5- 8.0 1.3---- 1.0------------
1999-08-01 15.8 20.7 11.7 10.1 91.3- 7.7 3.0---- 0.4------------
1999-07-31 16.6 21.0 11.7 10.7 79.0- 6.3 2.0---- 1.4------------
1999-07-30 14.6 21.0 6.3 5.6 83.5- 4.3 2.0---- 0.0------------
1999-07-29 15.2 20.1 11.9 7.6 78.0- 5.3 4.0---- 0.0------------
1999-07-28 17.1 19.1 15.5 12.3 89.3- 8.0 3.0---- 0.0------------
1999-07-27 18.3 24.0 12.7 11.0 89.8- 7.0 2.0---- 0.0------------
1999-07-26 20.6 27.2 13.9 10.7 92.5- 6.3 1.3---- 0.0------------
1999-07-25 15.7 21.3 9.0 6.6 93.8- 8.0 1.7---- 0.0------------
1999-07-24 14.9 18.6 10.8 9.5 88.3- 8.0 1.7---- 0.0------------
1999-07-23 15.3 19.9 12.9 11.5 95.3- 8.0 2.7---- 24.5------------
1999-07-22 19.2 25.5 12.9 10.1 78.3- 6.7 2.0---- 52.0------------
1999-07-21 19.2 27.0 10.2 8.5 66.0- 3.0 2.0---- 0.0------------
1999-07-20 17.8 26.0 9.7 9.5 72.5- 0.0 1.0---- 0.0------------
1999-07-19 16.0 24.1 7.8 6.6 81.3- 1.7 1.3---- 0.0------------
1999-07-18 14.1 21.6 6.3 4.2 80.5- 2.3 1.3---- 0.0------------
1999-07-17 13.9 20.5 7.3 4.2 80.3- 1.7 1.3---- 0.0------------
1999-07-16 14.1 19.6 7.5 5.1 87.5- 5.7 1.3---- 0.0------------
1999-07-15 15.2 17.6 12.8 11.5 92.5- 5.3 1.3---- 5.0------------
1999-07-14 19.0 23.6 15.0 11.6 82.8- 8.0 4.3---- 25.4------------
1999-07-13 18.1 22.5 13.3 11.5 88.0- 7.0 2.7---- 0.2------------
1999-07-12 19.2 26.0 13.2 11.8 87.3- 5.3 1.7---- 0.2------------
1999-07-11 20.1 23.1 16.9 15.7 80.0- 7.7 3.0---- 0.0------------
1999-07-10 18.9 22.5 16.3 14.7 93.3- 8.0 3.7---- 0.0------------
1999-07-09 20.7 25.1 16.7 15.6 82.8- 7.0 2.7---- 0.0------------
1999-07-08 20.8 25.6 16.4 15.6 88.3- 5.7 3.0---- 0.2------------
1999-07-07 22.7 29.7 15.9 14.9 65.0- 4.7 1.0---- 22.4------------
1999-07-06 21.1 28.6 12.8 11.5 75.3- 0.7 2.0---- 0.0------------
1999-07-05 21.1 29.2 11.7 11.7 75.0- 0.0 0.7---- 0.0------------
1999-07-04 18.3 27.6 10.4 9.6 76.3- 1.3 1.7---- 0.0------------
1999-07-03 18.6 26.1 11.3 9.5 86.5- 4.3 0.7---- 0.0------------
1999-07-02 17.1 23.6 9.7 6.6 85.0- 8.0 0.7---- 1.2------------
1999-07-01 15.6 22.6 9.7 8.5 84.8- 6.0 2.0---- 0.0------------
1999-06-30 17.5 24.1 9.9 6.6 86.3- 4.0 1.7---- 0.0------------
1999-06-29 15.9 20.7 9.7 9.1 89.0- 5.3 1.0---- 0.0------------
1999-06-28 17.8 26.6 9.2 8.5 76.8- 1.7 1.0---- 0.0------------
1999-06-27 16.0 26.1 5.8 4.2 80.0- 0.0 1.7---- 0.0------------
1999-06-26 13.8 21.6 5.2 1.8 77.3- 0.0 2.0---- 0.0------------
1999-06-25 11.7 15.7 7.9 7.8 93.5- 4.3 1.3---- 0.0------------
1999-06-24 9.2 10.0 7.7 7.0 97.0- 8.0 2.0---- 25.0------------
1999-06-23 8.6 10.0 6.3 5.6 93.5- 8.0 4.7---- 10.4------------
1999-06-22 12.3 16.7 7.7 7.5 97.3- 8.0 2.0---- 18.2------------
1999-06-21 17.7 26.1 11.6 10.8 88.5- 7.3 1.7---- 14.2------------
1999-06-20 17.2 21.9 13.8 13.6 91.8- 7.7 2.7---- 2.5------------
1999-06-19 16.3 20.5 11.8 9.3 94.0- 8.0 1.3---- 0.0------------
1999-06-18 17.8 25.1 12.0 11.4 84.5- 6.3 1.3---- 0.0------------
1999-06-17 16.9 21.0 13.3 12.5 90.0- 8.0 1.7---- 5.7------------
1999-06-16 17.5 22.1 12.7 12.6 92.8- 8.0 1.0---- 7.5------------
301.7 ms

 

Źródłem pochodzenia danych jest Instytut Meteorologii i Gospodarki Wodnej – Państwowy Instytut Badawczy. Dane Instytutu Meteorologii i Gospodarki Wodnej – Państwowego Instytutu Badawczego zostały przetworzone.

Dane źródłowe można odnaleźć na stronie https://dane.imgw.pl